createdAt,value
2023-02-14T00:00:28.150Z,5.61
2023-02-14T00:01:36.775Z,5.51
2023-02-14T00:02:45.845Z,5.48
2023-02-14T00:03:55.694Z,5.40
2023-02-14T00:05:08.109Z,5.37
2023-02-14T00:06:17.777Z,5.23
2023-02-14T00:07:26.905Z,5.20
2023-02-14T00:08:44.733Z,5.26
2023-02-14T00:09:54.346Z,5.23
2023-02-14T00:11:05.317Z,5.30
2023-02-14T00:12:14.825Z,5.32
2023-02-14T00:13:24.698Z,5.40
2023-02-14T00:14:53.531Z,5.54
2023-02-14T00:16:03.497Z,5.56
2023-02-14T00:17:12.501Z,5.75
2023-02-14T00:18:21.973Z,5.77
2023-02-14T00:19:31.325Z,5.68
2023-02-14T00:20:40.387Z,5.61
2023-02-14T00:21:49.797Z,5.46
2023-02-14T00:23:00.552Z,5.52
2023-02-14T00:24:11.474Z,5.51
2023-02-14T00:25:20.127Z,5.40
2023-02-14T00:26:29.863Z,5.34
2023-02-14T00:27:38.635Z,5.39
2023-02-14T00:28:48.655Z,5.51
2023-02-14T00:30:03.545Z,5.53
2023-02-14T00:31:12.166Z,5.61
2023-02-14T00:32:21.864Z,5.45
2023-02-14T00:33:30.405Z,5.61
2023-02-14T00:34:41.088Z,5.71
2023-02-14T00:35:52.343Z,5.63
2023-02-14T00:37:05.023Z,5.35
2023-02-14T00:38:13.664Z,5.23
2023-02-14T00:39:24.348Z,5.32
2023-02-14T00:40:33.361Z,5.29
2023-02-14T00:41:43.483Z,5.35
2023-02-14T00:42:54.937Z,5.41
2023-02-14T00:44:06.130Z,5.49
2023-02-14T00:45:17.278Z,5.44
2023-02-14T00:46:26.725Z,5.60
2023-02-14T00:47:35.385Z,5.58
2023-02-14T00:50:03.107Z,5.81
2023-02-14T00:51:12.306Z,5.61
2023-02-14T00:52:21.151Z,5.39
2023-02-14T00:53:30.288Z,5.48
2023-02-14T00:54:39.396Z,5.32
2023-02-14T00:55:49.451Z,5.25
2023-02-14T00:56:58.306Z,5.26
2023-02-14T00:58:08.295Z,5.21
2023-02-14T00:59:17.089Z,5.10
2023-02-14T01:00:26.069Z,5.26
2023-02-14T01:01:37.155Z,5.36
2023-02-14T01:02:46.895Z,5.53
2023-02-14T01:03:58.109Z,5.51
2023-02-14T01:05:07.896Z,5.66
2023-02-14T01:06:19.195Z,5.72
2023-02-14T01:07:29.068Z,5.66
2023-02-14T01:08:39.006Z,5.70
2023-02-14T01:09:47.947Z,5.73
2023-02-14T01:10:57.375Z,5.60
2023-02-14T01:12:08.648Z,5.57
2023-02-14T01:13:18.570Z,5.49
2023-02-14T01:14:27.220Z,5.51
2023-02-14T01:16:59.255Z,5.40
2023-02-14T01:19:24.605Z,5.36
2023-02-14T01:20:34.965Z,5.21
2023-02-14T01:21:45.755Z,5.22
2023-02-14T01:22:55.515Z,5.31
2023-02-14T01:24:07.213Z,5.41
2023-02-14T01:25:16.925Z,5.58
2023-02-14T01:26:26.996Z,5.63
2023-02-14T01:27:36.323Z,5.65
2023-02-14T01:28:46.732Z,5.64
2023-02-14T01:29:56.015Z,5.63
2023-02-14T01:32:34.057Z,5.63
2023-02-14T01:33:45.434Z,5.45
2023-02-14T01:34:54.986Z,5.40
2023-02-14T01:36:07.332Z,5.29
2023-02-14T01:37:16.963Z,5.32
2023-02-14T01:38:26.188Z,5.24
2023-02-14T01:39:35.233Z,5.15
2023-02-14T01:42:01.871Z,5.19
2023-02-14T01:43:17.138Z,5.18
2023-02-14T01:44:30.311Z,5.26
2023-02-14T01:45:41.270Z,5.41
2023-02-14T01:46:51.385Z,5.46
2023-02-14T01:48:01.120Z,5.56
2023-02-14T01:49:26.482Z,5.55
2023-02-14T01:50:39.955Z,5.68
2023-02-14T01:51:55.929Z,5.59
2023-02-14T01:53:08.233Z,5.52
2023-02-14T01:54:21.939Z,5.46
2023-02-14T01:55:35.432Z,5.49
2023-02-14T01:56:48.175Z,5.41
2023-02-14T01:58:03.838Z,5.38
2023-02-14T01:59:15.940Z,5.33
2023-02-14T02:00:45.048Z,5.27
2023-02-14T02:01:54.742Z,5.18
2023-02-14T02:03:05.194Z,5.18
2023-02-14T02:05:48.104Z,5.25
2023-02-14T02:07:07.464Z,5.08
2023-02-14T02:08:17.737Z,5.27
2023-02-14T02:09:42.856Z,5.49
2023-02-14T02:11:00.316Z,5.53
2023-02-14T02:12:17.138Z,5.62
2023-02-14T02:13:26.378Z,5.77
2023-02-14T02:14:38.476Z,5.86
2023-02-14T02:15:51.611Z,5.73
2023-02-14T02:17:07.508Z,5.83
2023-02-14T02:20:18.598Z,5.79
2023-02-14T02:21:38.439Z,5.54
2023-02-14T02:23:12.181Z,5.46
2023-02-14T02:24:25.626Z,5.42
2023-02-14T02:25:48.140Z,5.38
2023-02-14T02:27:22.036Z,5.35
2023-02-14T02:28:43.354Z,5.33
2023-02-14T02:30:04.917Z,5.19
2023-02-14T02:31:33.791Z,5.11
2023-02-14T02:34:59.788Z,5.15
2023-02-14T02:36:25.239Z,5.06
2023-02-14T02:37:54.381Z,5.24
2023-02-14T02:39:34.317Z,5.33
2023-02-14T02:41:07.112Z,5.44
2023-02-14T02:42:25.269Z,5.56
2023-02-14T02:43:38.099Z,5.67
2023-02-14T02:46:49.349Z,5.60
2023-02-14T02:48:12.051Z,5.41
2023-02-14T02:50:19.220Z,5.33
2023-02-14T02:53:18.173Z,5.28
2023-02-14T02:54:32.707Z,5.12
2023-02-14T02:56:12.366Z,5.10
2023-02-14T02:57:26.867Z,5.14
2023-02-14T03:00:14.696Z,5.42
2023-02-14T03:01:28.302Z,5.32
2023-02-14T03:02:59.324Z,5.54
2023-02-14T03:04:29.905Z,5.59
2023-02-14T03:05:40.635Z,5.72
2023-02-14T03:06:51.189Z,5.72
2023-02-14T03:08:00.097Z,5.59
2023-02-14T03:10:34.721Z,5.55
2023-02-14T03:13:38.622Z,5.48
2023-02-14T03:15:06.797Z,5.33
2023-02-14T03:16:28.982Z,5.20
2023-02-14T03:17:59.040Z,5.16
2023-02-14T03:19:33.136Z,5.08
2023-02-14T03:21:01.323Z,5.09
2023-02-14T03:23:46.044Z,5.49
2023-02-14T03:25:08.702Z,5.49
2023-02-14T03:26:36.268Z,5.64
2023-02-14T03:27:49.570Z,5.74
2023-02-14T03:29:15.078Z,5.71
2023-02-14T03:30:29.534Z,5.84
2023-02-14T03:34:42.408Z,6.17
2023-02-14T03:36:00.888Z,6.07
2023-02-14T03:37:18.531Z,6.13
2023-02-14T03:38:49.948Z,6.07
2023-02-14T03:40:13.044Z,6.06
2023-02-14T03:41:27.406Z,5.86
2023-02-14T03:44:01.189Z,5.64
2023-02-14T03:46:47.244Z,5.59
2023-02-14T03:48:00.098Z,5.50
2023-02-14T03:49:12.572Z,5.45
2023-02-14T03:50:28.929Z,5.57
2023-02-14T03:51:39.260Z,5.60
2023-02-14T03:52:51.926Z,5.66
2023-02-14T03:54:02.709Z,5.68
2023-02-14T03:55:12.886Z,5.76
2023-02-14T03:56:43.059Z,5.76
2023-02-14T03:59:35.739Z,6.12
2023-02-14T04:00:46.116Z,6.10
2023-02-14T04:02:12.461Z,5.99
2023-02-14T04:03:25.869Z,5.78
2023-02-14T04:05:54.526Z,6.11
2023-02-14T04:07:12.547Z,5.97
2023-02-14T04:08:25.939Z,5.92
2023-02-14T04:09:34.996Z,5.88
2023-02-14T04:10:44.065Z,5.99
2023-02-14T04:13:07.695Z,6.12
2023-02-14T04:14:17.735Z,5.94
2023-02-14T04:15:26.459Z,6.00
2023-02-14T04:16:37.758Z,5.93
2023-02-14T04:18:05.333Z,5.76
2023-02-14T04:19:23.076Z,5.83
2023-02-14T04:20:32.262Z,5.87
2023-02-14T04:21:41.497Z,5.87
2023-02-14T04:22:52.252Z,5.87
2023-02-14T04:24:00.629Z,5.75
2023-02-14T04:25:09.654Z,5.84
2023-02-14T04:26:20.194Z,5.85
2023-02-14T04:27:29.776Z,6.00
2023-02-14T04:28:39.308Z,5.99
2023-02-14T04:29:50.408Z,5.95
2023-02-14T04:31:05.042Z,6.05
2023-02-14T04:33:34.334Z,6.13
2023-02-14T04:34:45.174Z,5.91
2023-02-14T04:35:54.114Z,5.89
2023-02-14T04:37:05.023Z,5.76
2023-02-14T04:38:15.715Z,5.78
2023-02-14T04:39:24.840Z,5.55
2023-02-14T04:40:34.884Z,5.68
2023-02-14T04:41:43.407Z,5.63
2023-02-14T04:42:52.360Z,5.73
2023-02-14T04:44:02.029Z,5.78
2023-02-14T04:45:11.556Z,5.55
2023-02-14T04:46:21.630Z,5.64
2023-02-14T04:47:31.514Z,5.79
2023-02-14T04:48:40.044Z,5.88
2023-02-14T04:49:48.728Z,5.90
2023-02-14T04:52:13.750Z,5.96
2023-02-14T04:53:22.423Z,5.81
2023-02-14T04:54:32.494Z,5.73
2023-02-14T04:55:43.236Z,5.63
2023-02-14T04:56:53.800Z,5.59
2023-02-14T04:58:02.314Z,5.53
2023-02-14T04:59:12.567Z,5.41
2023-02-14T05:00:22.760Z,5.46
2023-02-14T05:01:32.221Z,5.54
2023-02-14T05:02:41.868Z,5.58
2023-02-14T05:03:50.477Z,5.46
2023-02-14T05:05:00.127Z,5.57
2023-02-14T05:06:08.722Z,5.61
2023-02-14T05:07:17.428Z,5.70
2023-02-14T05:08:27.255Z,5.46
2023-02-14T05:09:36.777Z,5.60
2023-02-14T05:10:46.507Z,5.63
2023-02-14T05:11:56.057Z,5.64
2023-02-14T05:13:04.791Z,5.78
2023-02-14T05:14:13.322Z,5.69
2023-02-14T05:15:22.934Z,5.72
2023-02-14T05:16:31.991Z,5.66
2023-02-14T05:17:41.310Z,5.61
2023-02-14T05:18:49.963Z,5.40
2023-02-14T05:19:59.542Z,5.53
2023-02-14T05:21:08.444Z,5.57
2023-02-14T05:22:18.614Z,5.56
2023-02-14T05:23:27.850Z,5.56
2023-02-14T05:24:37.397Z,5.68
2023-02-14T05:25:49.473Z,5.74
2023-02-14T05:26:59.224Z,5.70
2023-02-14T05:28:10.515Z,5.73
2023-02-14T05:29:19.901Z,5.73
2023-02-14T05:30:30.444Z,5.66
2023-02-14T05:31:40.284Z,5.53
2023-02-14T05:32:48.972Z,5.49
2023-02-14T05:35:13.710Z,5.57
2023-02-14T05:36:23.515Z,5.55
2023-02-14T05:37:32.638Z,5.66
2023-02-14T05:38:41.855Z,5.73
2023-02-14T05:41:08.704Z,5.93
2023-02-14T05:42:18.260Z,5.87
2023-02-14T05:43:28.082Z,5.90
2023-02-14T05:44:37.585Z,5.88
2023-02-14T05:45:46.170Z,5.83
2023-02-14T05:46:55.952Z,5.64
2023-02-14T05:49:21.554Z,5.54
2023-02-14T05:50:31.623Z,5.36
2023-02-14T05:51:41.173Z,5.32
2023-02-14T05:52:49.907Z,5.25
2023-02-14T05:54:00.808Z,5.24
2023-02-14T05:55:10.718Z,5.20
2023-02-14T05:56:20.464Z,5.29
2023-02-14T05:57:30.152Z,5.35
2023-02-14T05:58:38.671Z,5.49
2023-02-14T05:59:47.756Z,5.56
2023-02-14T06:02:20.398Z,5.85
2023-02-14T06:03:30.115Z,5.78
2023-02-14T06:04:39.725Z,5.86
2023-02-14T06:05:55.879Z,5.89
2023-02-14T06:07:04.812Z,5.79
2023-02-14T06:08:14.561Z,5.73
2023-02-14T06:09:23.223Z,5.65
2023-02-14T06:10:33.332Z,5.64
2023-02-14T06:12:57.044Z,5.64
2023-02-14T06:14:05.875Z,5.49
2023-02-14T06:15:14.598Z,5.42
2023-02-14T06:16:24.255Z,5.36
2023-02-14T06:17:33.964Z,5.23
2023-02-14T06:18:43.670Z,5.18
2023-02-14T06:19:52.697Z,5.13
2023-02-14T06:21:02.291Z,5.05
2023-02-14T06:22:11.709Z,5.07
2023-02-14T06:23:20.784Z,5.06
2023-02-14T06:24:29.850Z,5.18
2023-02-14T06:25:39.514Z,5.26
2023-02-14T06:26:51.694Z,5.41
2023-02-14T06:28:02.038Z,5.48
2023-02-14T06:30:27.853Z,5.86
2023-02-14T06:31:36.651Z,5.90
2023-02-14T06:32:45.698Z,5.98
2023-02-14T06:33:54.966Z,6.01
2023-02-14T06:35:04.655Z,5.98
2023-02-14T06:36:15.218Z,5.93
2023-02-14T06:37:24.859Z,5.97
2023-02-14T06:38:34.575Z,5.94
2023-02-14T06:39:44.222Z,5.94
2023-02-14T06:40:53.962Z,5.92
2023-02-14T06:42:02.467Z,5.90
2023-02-14T06:43:13.384Z,5.86
2023-02-14T06:44:23.835Z,5.88
2023-02-14T06:45:33.839Z,5.85
2023-02-14T06:46:42.818Z,5.71
2023-02-14T06:47:51.425Z,5.78
2023-02-14T06:49:00.264Z,5.81
2023-02-14T06:50:12.069Z,5.79
2023-02-14T06:51:21.009Z,5.79
2023-02-14T06:52:30.689Z,5.72
2023-02-14T06:53:39.923Z,5.66
2023-02-14T06:54:48.550Z,5.53
2023-02-14T06:55:57.063Z,5.58
2023-02-14T06:57:06.244Z,5.59
2023-02-14T06:58:15.145Z,5.63
2023-02-14T06:59:23.886Z,5.69
2023-02-14T07:00:33.698Z,5.66
2023-02-14T07:01:42.667Z,5.60
2023-02-14T07:02:52.294Z,5.70
2023-02-14T07:04:02.910Z,5.61
2023-02-14T07:05:11.885Z,5.65
2023-02-14T07:06:21.759Z,5.63
2023-02-14T07:07:30.630Z,5.57
2023-02-14T07:08:39.352Z,5.64
2023-02-14T07:09:48.945Z,5.69
2023-02-14T07:10:59.018Z,5.60
2023-02-14T07:12:09.093Z,5.68
2023-02-14T07:13:18.500Z,5.71
2023-02-14T07:14:27.528Z,5.75
2023-02-14T07:16:50.975Z,5.82
2023-02-14T07:18:00.686Z,5.65
2023-02-14T07:19:09.306Z,5.72
2023-02-14T07:20:19.980Z,5.70
2023-02-14T07:21:28.616Z,5.65
2023-02-14T07:23:54.964Z,5.85
2023-02-14T07:25:05.636Z,5.79
2023-02-14T07:27:32.943Z,5.86
2023-02-14T07:28:45.108Z,5.79
2023-02-14T07:29:53.781Z,5.85
2023-02-14T07:31:03.886Z,5.87
2023-02-14T07:32:13.713Z,5.85
2023-02-14T07:33:25.267Z,5.81
2023-02-14T07:34:34.290Z,5.78
2023-02-14T07:35:43.955Z,5.75
2023-02-14T07:36:53.135Z,5.73
2023-02-14T07:38:01.700Z,5.74
2023-02-14T07:39:11.001Z,5.70
2023-02-14T07:40:21.150Z,5.56
2023-02-14T07:41:30.039Z,5.59
2023-02-14T07:42:39.588Z,5.61
2023-02-14T07:43:48.716Z,5.56
2023-02-14T07:44:57.414Z,5.63
2023-02-14T07:47:22.111Z,5.80
2023-02-14T07:49:46.780Z,5.66
2023-02-14T07:50:57.118Z,5.43
2023-02-14T07:52:06.113Z,5.51
2023-02-14T07:53:14.662Z,5.49
2023-02-14T07:54:24.619Z,5.53
2023-02-14T07:55:33.197Z,5.57
2023-02-14T07:56:43.170Z,5.59
2023-02-14T07:59:08.238Z,5.73
2023-02-14T08:00:19.191Z,5.56
2023-02-14T08:01:28.030Z,5.55
2023-02-14T08:03:52.209Z,5.60
2023-02-14T08:05:00.928Z,5.49
2023-02-14T08:07:25.128Z,5.57
2023-02-14T08:08:34.675Z,5.49
2023-02-14T08:10:59.639Z,5.62
2023-02-14T08:12:28.905Z,5.49
2023-02-14T08:13:38.103Z,5.49
2023-02-14T08:14:48.507Z,5.48
2023-02-14T08:16:07.213Z,5.19
2023-02-14T08:17:17.178Z,5.19
2023-02-14T08:18:27.719Z,5.22
2023-02-14T08:19:38.015Z,5.17
2023-02-14T08:22:04.498Z,5.26
2023-02-14T08:24:28.254Z,5.34
2023-02-14T08:25:38.536Z,5.22
2023-02-14T08:26:48.050Z,5.18
2023-02-14T08:27:57.203Z,5.24
2023-02-14T08:30:41.454Z,5.45
2023-02-14T08:33:06.609Z,5.36
2023-02-14T08:34:15.878Z,5.24
2023-02-14T08:35:26.675Z,5.27
2023-02-14T08:36:35.079Z,5.32
2023-02-14T08:37:44.454Z,5.28
2023-02-14T08:38:54.819Z,5.28
2023-02-14T08:41:19.658Z,5.44
2023-02-14T08:43:45.234Z,5.40
2023-02-14T08:44:54.939Z,5.24
2023-02-14T08:46:04.452Z,5.23
2023-02-14T08:48:28.260Z,5.27
2023-02-14T08:49:36.804Z,5.23
2023-02-14T08:52:01.095Z,5.06
2023-02-14T08:53:13.002Z,4.91
2023-02-14T08:54:21.778Z,4.97
2023-02-14T08:55:31.449Z,4.90
2023-02-14T08:56:40.761Z,5.00
2023-02-14T08:59:05.332Z,5.22
2023-02-14T09:01:32.481Z,5.11
2023-02-14T09:02:42.296Z,5.11
2023-02-14T09:05:08.799Z,5.19
2023-02-14T09:06:18.029Z,5.12
2023-02-14T09:07:27.247Z,5.08
2023-02-14T09:08:37.779Z,5.04
2023-02-14T09:09:47.652Z,5.11
2023-02-14T09:10:57.324Z,5.06
2023-02-14T09:12:09.245Z,5.06
2023-02-14T09:13:18.350Z,4.98
2023-02-14T09:14:26.887Z,5.06
2023-02-14T09:15:36.845Z,5.02
2023-02-14T09:16:45.905Z,5.04
2023-02-14T09:19:09.427Z,5.19
2023-02-14T09:21:37.363Z,5.13
2023-02-14T09:22:48.762Z,5.10
2023-02-14T09:23:57.457Z,5.07
2023-02-14T09:25:07.537Z,5.02
2023-02-14T09:26:19.569Z,4.87
2023-02-14T09:27:30.422Z,4.94
2023-02-14T09:29:56.326Z,5.08
2023-02-14T09:31:10.758Z,5.02
2023-02-14T09:32:20.220Z,4.95
2023-02-14T09:33:29.951Z,4.93
2023-02-14T09:36:30.072Z,5.13
2023-02-14T09:38:54.829Z,5.10
2023-02-14T09:41:31.001Z,5.13
2023-02-14T09:44:26.399Z,5.17
2023-02-14T09:45:36.585Z,4.81
2023-02-14T09:46:49.043Z,4.79
2023-02-14T09:49:23.564Z,5.06
2023-02-14T09:50:54.833Z,4.97
2023-02-14T09:52:07.186Z,4.98
2023-02-14T09:54:48.327Z,5.02
2023-02-14T09:56:04.837Z,4.98
2023-02-14T10:00:36.557Z,5.09
2023-02-14T10:03:17.927Z,4.97
2023-02-14T10:04:38.205Z,4.82
2023-02-14T10:06:08.352Z,4.93
2023-02-14T10:07:23.455Z,5.02
2023-02-14T10:10:19.914Z,5.12
2023-02-14T10:14:47.940Z,5.17
2023-02-14T10:18:57.854Z,5.22
2023-02-14T10:23:08.153Z,5.36
2023-02-14T10:24:26.446Z,5.28
2023-02-14T10:26:58.262Z,5.58
2023-02-14T10:28:10.660Z,5.48
2023-02-14T10:32:37.353Z,5.46
2023-02-14T10:35:28.348Z,5.57
2023-02-14T10:36:53.166Z,5.43
2023-02-14T10:39:38.180Z,5.20
2023-02-14T10:41:12.158Z,5.21
2023-02-14T10:42:30.882Z,5.08
2023-02-14T10:43:43.730Z,4.95
2023-02-14T10:46:56.757Z,5.03
2023-02-14T10:50:12.846Z,5.24
2023-02-14T10:51:28.565Z,4.98
2023-02-14T10:52:41.152Z,4.99
2023-02-14T10:55:51.462Z,5.17
2023-02-14T10:57:04.210Z,5.18
2023-02-14T10:58:18.577Z,5.03
2023-02-14T10:59:37.557Z,4.97
2023-02-14T11:01:02.657Z,5.10
2023-02-14T11:02:15.426Z,5.24
2023-02-14T11:03:27.324Z,5.31
2023-02-14T11:04:37.892Z,5.29
2023-02-14T11:05:49.669Z,5.19
2023-02-14T11:09:36.916Z,5.40
2023-02-14T11:10:47.255Z,5.33
2023-02-14T11:11:59.452Z,5.24
2023-02-14T11:14:35.292Z,5.35
2023-02-14T11:15:49.448Z,5.34
2023-02-14T11:16:59.382Z,5.38
2023-02-14T11:18:24.303Z,5.33
2023-02-14T11:19:37.143Z,5.41
2023-02-14T11:22:09.343Z,5.42
2023-02-14T11:23:21.524Z,5.30
2023-02-14T11:25:53.204Z,5.43
2023-02-14T11:28:25.159Z,5.23
2023-02-14T11:30:53.412Z,5.28
2023-02-14T11:33:47.877Z,5.28
2023-02-14T11:35:22.634Z,5.13
2023-02-14T11:36:33.447Z,5.03
2023-02-14T11:40:39.813Z,4.95
2023-02-14T11:41:52.839Z,4.92
2023-02-14T11:44:32.761Z,5.13
2023-02-14T11:47:28.431Z,4.90
2023-02-14T11:48:39.323Z,4.93
2023-02-14T11:50:02.770Z,4.95
2023-02-14T11:52:30.189Z,5.13
2023-02-14T11:53:48.573Z,4.98
2023-02-14T11:54:58.899Z,5.04
2023-02-14T11:56:08.429Z,4.89
2023-02-14T11:57:21.334Z,4.96
2023-02-14T11:58:40.015Z,4.89
2023-02-14T12:01:14.437Z,5.25
2023-02-14T12:04:00.955Z,5.26
2023-02-14T12:05:25.795Z,5.17
2023-02-14T12:06:36.534Z,5.03
2023-02-14T12:10:31.771Z,5.07
2023-02-14T12:13:02.723Z,5.17
2023-02-14T12:15:43.163Z,4.89
2023-02-14T12:19:58.243Z,5.05
2023-02-14T12:23:00.854Z,5.15
2023-02-14T12:24:39.801Z,5.03
2023-02-14T12:25:54.072Z,5.02
2023-02-14T12:27:07.637Z,5.09
2023-02-14T12:28:23.227Z,5.06
2023-02-14T12:29:45.265Z,5.11
2023-02-14T12:30:55.232Z,5.05
2023-02-14T12:32:22.868Z,5.06
2023-02-14T12:33:33.631Z,4.95
2023-02-14T12:34:42.768Z,5.04
2023-02-14T12:39:15.941Z,5.24
2023-02-14T12:42:19.209Z,5.29
2023-02-14T12:43:36.117Z,5.10
2023-02-14T12:44:58.342Z,5.17
2023-02-14T12:47:51.188Z,5.17
2023-02-14T12:49:29.613Z,5.11
2023-02-14T12:52:16.633Z,5.21
2023-02-14T12:55:51.607Z,5.34
2023-02-14T12:57:10.245Z,5.23
2023-02-14T12:58:43.820Z,5.03
2023-02-14T13:00:14.624Z,5.07
2023-02-14T13:01:38.811Z,5.12
2023-02-14T13:03:03.296Z,4.83
2023-02-14T13:06:06.204Z,5.10
2023-02-14T13:07:32.842Z,4.98
2023-02-14T13:10:26.757Z,5.10
2023-02-14T13:11:46.067Z,5.00
2023-02-14T13:14:44.955Z,5.08
2023-02-14T13:18:56.824Z,5.11
2023-02-14T13:20:15.031Z,4.90
2023-02-14T13:21:27.364Z,4.95
2023-02-14T13:22:39.728Z,4.95
2023-02-14T13:25:28.643Z,5.10
2023-02-14T13:28:03.882Z,5.00
2023-02-14T13:29:24.111Z,4.97
2023-02-14T13:30:38.105Z,4.93
2023-02-14T13:31:48.280Z,4.97
2023-02-14T13:34:36.992Z,5.11
2023-02-14T13:35:48.220Z,5.06
2023-02-14T13:36:59.212Z,5.04
2023-02-14T13:38:12.890Z,4.96
2023-02-14T13:40:50.844Z,4.96
2023-02-14T13:42:01.888Z,4.75
2023-02-14T13:43:10.864Z,4.92
2023-02-14T13:44:40.352Z,4.85
2023-02-14T13:45:55.874Z,4.93
2023-02-14T13:48:29.188Z,5.02
2023-02-14T13:49:41.980Z,4.87
2023-02-14T13:51:07.721Z,4.91
2023-02-14T13:52:36.460Z,5.02
2023-02-14T13:53:48.994Z,5.07
2023-02-14T13:55:06.196Z,5.02
2023-02-14T13:56:20.384Z,5.03
2023-02-14T13:57:35.866Z,5.01
2023-02-14T13:59:00.169Z,4.97
2023-02-14T14:00:22.321Z,4.88
2023-02-14T14:03:00.972Z,4.89
2023-02-14T14:04:31.751Z,4.83
2023-02-14T14:05:47.038Z,4.92
2023-02-14T14:07:10.070Z,4.75
2023-02-14T14:08:26.659Z,4.84
2023-02-14T14:09:51.119Z,4.74
2023-02-14T14:12:34.732Z,4.61
2023-02-14T14:14:04.476Z,4.70
2023-02-14T14:15:16.191Z,4.69
2023-02-14T14:16:29.169Z,4.57
2023-02-14T14:17:45.504Z,4.41
2023-02-14T14:19:10.171Z,4.51
2023-02-14T14:20:23.135Z,4.64
2023-02-14T14:21:35.427Z,4.50
2023-02-14T14:22:57.364Z,4.59
2023-02-14T14:24:27.396Z,4.68
2023-02-14T14:25:41.739Z,4.43
2023-02-14T14:27:04.009Z,4.46
2023-02-14T14:29:39.445Z,4.65
2023-02-14T14:30:49.887Z,4.46
2023-02-14T14:31:58.750Z,4.52
2023-02-14T14:33:26.579Z,4.36
2023-02-14T14:34:36.926Z,4.43
2023-02-14T14:36:01.917Z,4.33
2023-02-14T14:37:21.259Z,4.41
2023-02-14T14:40:10.653Z,4.54
2023-02-14T14:41:28.556Z,4.44
2023-02-14T14:43:54.801Z,4.53
2023-02-14T14:45:11.706Z,4.40
2023-02-14T14:46:23.824Z,4.41
2023-02-14T14:47:44.920Z,4.44
2023-02-14T14:48:56.546Z,4.44
2023-02-14T14:50:10.859Z,4.32
2023-02-14T14:51:31.928Z,4.42
2023-02-14T14:52:49.965Z,4.32
2023-02-14T14:54:02.780Z,4.30
2023-02-14T14:56:41.911Z,4.39
2023-02-14T14:57:53.133Z,4.33
2023-02-14T14:59:33.257Z,4.32
2023-02-14T15:02:01.570Z,4.19
2023-02-14T15:03:17.558Z,3.99
2023-02-14T15:05:49.482Z,4.15
2023-02-14T15:07:21.428Z,4.09
2023-02-14T15:08:31.752Z,4.02
2023-02-14T15:09:42.834Z,4.14
2023-02-14T15:12:37.115Z,4.30
2023-02-14T15:15:08.030Z,4.17
2023-02-14T15:16:24.631Z,4.10
2023-02-14T15:17:33.814Z,4.15
2023-02-14T15:18:47.281Z,4.00
2023-02-14T15:20:03.027Z,4.07
2023-02-14T15:21:13.840Z,4.10
2023-02-14T15:22:29.093Z,4.02
2023-02-14T15:23:37.894Z,4.08
2023-02-14T15:26:34.232Z,4.02
2023-02-14T15:27:44.130Z,4.02
2023-02-14T15:30:25.677Z,4.17
2023-02-14T15:31:38.879Z,4.08
2023-02-14T15:32:50.479Z,3.97
2023-02-14T15:36:38.102Z,4.14
2023-02-14T15:37:50.789Z,3.88
2023-02-14T15:40:25.446Z,3.98
2023-02-14T15:41:34.268Z,3.90
2023-02-14T15:44:00.810Z,4.04
2023-02-14T15:46:41.950Z,4.10
2023-02-14T15:47:57.368Z,4.00
2023-02-14T15:50:40.124Z,4.00
2023-02-14T15:51:51.216Z,3.96
2023-02-14T15:53:06.339Z,3.90
2023-02-14T15:54:24.717Z,3.92
2023-02-14T15:55:36.110Z,3.83
2023-02-14T15:58:11.899Z,3.81
2023-02-14T15:59:25.509Z,3.71
2023-02-14T16:00:35.632Z,3.80
2023-02-14T16:01:58.237Z,3.87
2023-02-14T16:04:29.445Z,3.70
2023-02-14T16:05:38.349Z,3.70
2023-02-14T16:07:03.608Z,3.79
2023-02-14T16:08:31.270Z,3.81
2023-02-14T16:09:40.707Z,3.84
2023-02-14T16:11:10.102Z,3.77
2023-02-14T16:12:32.271Z,3.72
2023-02-14T16:15:12.525Z,3.74
2023-02-14T16:16:22.968Z,3.71
2023-02-14T16:17:34.270Z,3.70
2023-02-14T16:18:49.769Z,3.75
2023-02-14T16:19:58.992Z,3.72
2023-02-14T16:21:23.577Z,3.75
2023-02-14T16:22:32.224Z,3.59
2023-02-14T16:23:42.334Z,3.74
2023-02-14T16:24:50.974Z,3.62
2023-02-14T16:26:00.180Z,3.73
2023-02-14T16:27:09.080Z,3.76
2023-02-14T16:28:18.882Z,3.73
2023-02-14T16:29:28.323Z,3.74
2023-02-14T16:30:39.462Z,3.79
2023-02-14T16:32:15.727Z,3.76
2023-02-14T16:33:02.560Z,3.78
2023-02-14T16:35:30.845Z,3.76
2023-02-14T16:36:40.321Z,3.72
2023-02-14T16:37:51.928Z,3.72
2023-02-14T16:39:04.755Z,3.77
2023-02-14T16:40:16.792Z,3.65
2023-02-14T16:42:43.837Z,3.97
2023-02-14T16:43:54.812Z,3.86
2023-02-14T16:45:03.700Z,3.82
2023-02-14T16:46:14.987Z,3.66
2023-02-14T16:47:25.835Z,3.60
2023-02-14T16:48:34.172Z,3.53
2023-02-14T16:49:43.724Z,3.61
2023-02-14T16:50:52.458Z,3.71
2023-02-14T16:52:02.570Z,3.66
2023-02-14T16:54:40.674Z,3.86
2023-02-14T16:55:52.238Z,3.76
2023-02-14T16:57:03.560Z,3.77
2023-02-14T16:58:14.504Z,3.75
2023-02-14T17:00:39.560Z,3.82
2023-02-14T17:01:50.797Z,3.71
2023-02-14T17:03:06.047Z,3.62
2023-02-14T17:04:15.537Z,3.53
2023-02-14T17:05:25.448Z,3.55
2023-02-14T17:06:37.835Z,3.67
2023-02-14T17:07:46.858Z,3.65
2023-02-14T17:08:58.070Z,3.58
2023-02-14T17:10:11.747Z,3.58
2023-02-14T17:11:24.398Z,3.56
2023-02-14T17:12:37.097Z,3.56
2023-02-14T17:13:47.451Z,3.56
2023-02-14T17:15:00.802Z,3.57
2023-02-14T17:16:12.029Z,3.56
2023-02-14T17:17:21.771Z,3.48
2023-02-14T17:18:32.506Z,3.52
2023-02-14T17:19:41.321Z,3.60
2023-02-14T17:20:50.192Z,3.50
2023-02-14T17:21:59.651Z,3.58
2023-02-14T17:23:08.416Z,3.64
2023-02-14T17:24:18.192Z,3.60
2023-02-14T17:25:27.380Z,3.55
2023-02-14T17:26:37.542Z,3.59
2023-02-14T17:29:01.651Z,3.54
2023-02-14T17:30:11.913Z,3.31
2023-02-14T17:31:21.093Z,3.44
2023-02-14T17:32:30.396Z,3.46
2023-02-14T17:33:43.809Z,3.48
2023-02-14T17:34:52.686Z,3.48
2023-02-14T17:37:20.030Z,3.39
2023-02-14T17:39:52.873Z,3.36
2023-02-14T17:42:26.845Z,3.51
2023-02-14T17:43:38.665Z,3.36
2023-02-14T17:44:48.178Z,3.39
2023-02-14T17:45:57.754Z,3.45
2023-02-14T17:47:07.410Z,3.50
2023-02-14T17:48:15.994Z,3.53
2023-02-14T17:49:25.264Z,3.56
2023-02-14T17:50:35.213Z,3.56
2023-02-14T17:52:59.453Z,3.68
2023-02-14T17:54:08.111Z,3.48
2023-02-14T17:55:17.833Z,3.49
2023-02-14T17:56:28.920Z,3.43
2023-02-14T17:57:40.420Z,3.52
2023-02-14T17:58:51.547Z,3.45
2023-02-14T18:00:01.313Z,3.33
2023-02-14T18:01:12.860Z,3.41
2023-02-14T18:02:21.594Z,3.46
2023-02-14T18:03:30.229Z,3.46
2023-02-14T18:04:40.242Z,3.31
2023-02-14T18:05:48.803Z,3.31
2023-02-14T18:06:57.339Z,3.21
2023-02-14T18:08:05.838Z,3.31
2023-02-14T18:10:29.284Z,3.41
2023-02-14T18:12:54.892Z,3.45
2023-02-14T18:14:04.531Z,3.40
2023-02-14T18:16:29.639Z,3.46
2023-02-14T18:17:38.323Z,3.44
2023-02-14T18:18:47.478Z,3.45
2023-02-14T18:19:58.542Z,3.46
2023-02-14T18:21:10.194Z,3.52
2023-02-14T18:22:19.206Z,3.52
2023-02-14T18:23:29.108Z,3.48
2023-02-14T18:26:01.400Z,3.46
2023-02-14T18:27:10.135Z,3.45
2023-02-14T18:28:20.174Z,3.52
2023-02-14T18:29:31.761Z,3.58
2023-02-14T18:30:40.376Z,3.64
2023-02-14T18:31:50.761Z,3.66
2023-02-14T18:33:00.989Z,3.68
2023-02-14T18:35:26.811Z,3.78
2023-02-14T18:36:38.291Z,3.54
2023-02-14T18:37:46.795Z,3.58
2023-02-14T18:38:56.111Z,3.56
2023-02-14T18:40:07.606Z,3.58
2023-02-14T18:42:34.022Z,3.60
2023-02-14T18:43:44.141Z,3.57
2023-02-14T18:47:26.735Z,3.60
2023-02-14T18:48:37.368Z,3.55
2023-02-14T18:49:46.444Z,3.46
2023-02-14T18:50:55.547Z,3.50
2023-02-14T18:52:05.272Z,3.53
2023-02-14T18:54:30.203Z,3.53
2023-02-14T18:55:38.737Z,3.46
2023-02-14T18:56:47.548Z,3.53
2023-02-14T18:57:57.313Z,3.56
2023-02-14T18:59:11.432Z,3.47
2023-02-14T19:01:42.438Z,3.64
2023-02-14T19:02:50.971Z,3.56
2023-02-14T19:05:16.748Z,3.65
2023-02-14T19:06:28.801Z,3.47
2023-02-14T19:07:37.919Z,3.53
2023-02-14T19:10:05.862Z,3.56
2023-02-14T19:11:20.762Z,3.46
2023-02-14T19:15:09.629Z,3.56
2023-02-14T19:16:22.136Z,3.29
2023-02-14T19:17:32.960Z,3.36
2023-02-14T19:18:42.115Z,3.46
2023-02-14T19:19:55.275Z,3.48
2023-02-14T19:22:30.877Z,3.64
2023-02-14T19:23:45.988Z,3.51
2023-02-14T19:24:55.209Z,3.57
2023-02-14T19:26:15.990Z,3.57
2023-02-14T19:27:24.941Z,3.61
2023-02-14T19:28:33.897Z,3.64
2023-02-14T19:29:42.957Z,3.58
2023-02-14T19:30:51.693Z,3.50
2023-02-14T19:32:01.387Z,3.44
2023-02-14T19:33:11.241Z,3.38
2023-02-14T19:34:29.485Z,3.44
2023-02-14T19:36:57.313Z,3.63
2023-02-14T19:38:09.768Z,3.58
2023-02-14T19:40:37.659Z,3.65
2023-02-14T19:41:46.818Z,3.61
2023-02-14T19:44:16.595Z,3.79
2023-02-14T19:45:29.934Z,3.73
2023-02-14T19:46:42.458Z,3.79
2023-02-14T19:47:53.132Z,3.65
2023-02-14T19:49:01.954Z,3.70
2023-02-14T19:50:10.680Z,3.75
2023-02-14T19:51:26.058Z,3.78
2023-02-14T19:52:34.558Z,3.64
2023-02-14T19:55:01.215Z,3.85
2023-02-14T19:56:11.086Z,3.65
2023-02-14T19:58:38.737Z,3.81
2023-02-14T19:59:47.570Z,3.78
2023-02-14T20:00:59.646Z,3.78
2023-02-14T20:03:27.947Z,3.91
2023-02-14T20:04:36.852Z,3.84